sensor_id;sensor_type;location;lat;lon;timestamp;P1;durP1;ratioP1;P2;durP2;ratioP2
32864;SDS011;19219;44.500;11.188;2024-02-23T00:00:41;3.05;;;2.60;;
32864;SDS011;19219;44.500;11.188;2024-02-23T00:03:07;2.85;;;2.47;;
32864;SDS011;19219;44.500;11.188;2024-02-23T00:05:33;5.25;;;2.83;;
32864;SDS011;19219;44.500;11.188;2024-02-23T00:07:59;3.78;;;2.38;;
32864;SDS011;19219;44.500;11.188;2024-02-23T00:10:24;3.55;;;2.90;;
32864;SDS011;19219;44.500;11.188;2024-02-23T00:12:50;5.80;;;2.90;;
32864;SDS011;19219;44.500;11.188;2024-02-23T00:15:16;4.97;;;3.28;;
32864;SDS011;19219;44.500;11.188;2024-02-23T00:17:42;6.03;;;3.13;;
32864;SDS011;19219;44.500;11.188;2024-02-23T00:20:08;5.03;;;2.78;;
32864;SDS011;19219;44.500;11.188;2024-02-23T00:22:37;13.38;;;3.40;;
32864;SDS011;19219;44.500;11.188;2024-02-23T00:25:03;8.43;;;3.10;;
32864;SDS011;19219;44.500;11.188;2024-02-23T00:27:30;4.68;;;2.92;;
32864;SDS011;19219;44.500;11.188;2024-02-23T00:29:55;8.75;;;3.28;;
32864;SDS011;19219;44.500;11.188;2024-02-23T00:32:21;7.20;;;3.10;;
32864;SDS011;19219;44.500;11.188;2024-02-23T00:34:46;4.40;;;2.45;;
32864;SDS011;19219;44.500;11.188;2024-02-23T00:37:12;7.32;;;2.90;;
32864;SDS011;19219;44.500;11.188;2024-02-23T00:39:38;4.13;;;2.40;;
32864;SDS011;19219;44.500;11.188;2024-02-23T00:42:04;9.77;;;2.97;;
32864;SDS011;19219;44.500;11.188;2024-02-23T00:44:30;14.18;;;3.17;;
32864;SDS011;19219;44.500;11.188;2024-02-23T00:46:55;3.92;;;3.13;;
32864;SDS011;19219;44.500;11.188;2024-02-23T00:49:23;6.53;;;2.75;;
32864;SDS011;19219;44.500;11.188;2024-02-23T00:51:49;4.55;;;2.90;;
32864;SDS011;19219;44.500;11.188;2024-02-23T00:54:14;11.45;;;2.80;;
32864;SDS011;19219;44.500;11.188;2024-02-23T00:56:40;10.73;;;4.43;;
32864;SDS011;19219;44.500;11.188;2024-02-23T00:59:06;6.63;;;3.22;;
32864;SDS011;19219;44.500;11.188;2024-02-23T01:01:31;6.85;;;3.10;;
32864;SDS011;19219;44.500;11.188;2024-02-23T01:03:57;7.65;;;2.80;;
32864;SDS011;19219;44.500;11.188;2024-02-23T01:06:23;6.50;;;3.03;;
32864;SDS011;19219;44.500;11.188;2024-02-23T01:08:50;5.35;;;3.10;;
32864;SDS011;19219;44.500;11.188;2024-02-23T01:11:17;5.90;;;3.05;;
32864;SDS011;19219;44.500;11.188;2024-02-23T01:13:43;5.10;;;3.05;;
32864;SDS011;19219;44.500;11.188;2024-02-23T01:16:08;5.20;;;2.78;;
32864;SDS011;19219;44.500;11.188;2024-02-23T01:18:34;11.32;;;3.15;;
32864;SDS011;19219;44.500;11.188;2024-02-23T01:21:00;6.60;;;2.85;;
32864;SDS011;19219;44.500;11.188;2024-02-23T01:23:25;3.20;;;2.90;;
32864;SDS011;19219;44.500;11.188;2024-02-23T01:25:51;8.07;;;3.05;;
32864;SDS011;19219;44.500;11.188;2024-02-23T01:28:17;10.68;;;2.88;;
32864;SDS011;19219;44.500;11.188;2024-02-23T01:30:43;6.18;;;2.70;;
32864;SDS011;19219;44.500;11.188;2024-02-23T01:33:08;6.60;;;2.40;;
32864;SDS011;19219;44.500;11.188;2024-02-23T01:35:34;5.97;;;2.60;;
32864;SDS011;19219;44.500;11.188;2024-02-23T01:38:01;5.53;;;3.30;;
32864;SDS011;19219;44.500;11.188;2024-02-23T01:40:27;4.70;;;2.63;;
32864;SDS011;19219;44.500;11.188;2024-02-23T01:43:06;6.47;;;3.00;;
32864;SDS011;19219;44.500;11.188;2024-02-23T01:45:32;4.25;;;2.70;;
32864;SDS011;19219;44.500;11.188;2024-02-23T01:47:58;9.10;;;3.13;;
32864;SDS011;19219;44.500;11.188;2024-02-23T01:50:26;3.95;;;2.83;;
32864;SDS011;19219;44.500;11.188;2024-02-23T01:52:52;7.57;;;3.33;;
32864;SDS011;19219;44.500;11.188;2024-02-23T01:55:19;3.30;;;2.72;;
32864;SDS011;19219;44.500;11.188;2024-02-23T01:57:46;7.65;;;3.08;;
32864;SDS011;19219;44.500;11.188;2024-02-23T02:00:14;8.25;;;3.40;;
32864;SDS011;19219;44.500;11.188;2024-02-23T02:02:42;4.65;;;2.60;;
32864;SDS011;19219;44.500;11.188;2024-02-23T02:05:09;3.65;;;2.67;;
32864;SDS011;19219;44.500;11.188;2024-02-23T02:07:37;7.60;;;2.55;;
32864;SDS011;19219;44.500;11.188;2024-02-23T02:10:06;5.78;;;2.70;;
32864;SDS011;19219;44.500;11.188;2024-02-23T02:12:34;6.53;;;4.15;;
32864;SDS011;19219;44.500;11.188;2024-02-23T02:15:03;10.68;;;3.13;;
32864;SDS011;19219;44.500;11.188;2024-02-23T02:17:30;8.02;;;3.28;;
32864;SDS011;19219;44.500;11.188;2024-02-23T02:19:56;5.70;;;2.60;;
32864;SDS011;19219;44.500;11.188;2024-02-23T02:22:24;6.43;;;2.33;;
32864;SDS011;19219;44.500;11.188;2024-02-23T02:24:49;6.35;;;2.95;;
32864;SDS011;19219;44.500;11.188;2024-02-23T02:27:15;10.60;;;3.50;;
32864;SDS011;19219;44.500;11.188;2024-02-23T02:29:41;5.13;;;2.58;;
32864;SDS011;19219;44.500;11.188;2024-02-23T02:32:06;4.88;;;2.78;;
32864;SDS011;19219;44.500;11.188;2024-02-23T02:34:32;4.57;;;2.33;;
32864;SDS011;19219;44.500;11.188;2024-02-23T02:36:59;4.28;;;3.05;;
32864;SDS011;19219;44.500;11.188;2024-02-23T02:39:25;10.98;;;2.70;;
32864;SDS011;19219;44.500;11.188;2024-02-23T02:41:52;5.68;;;2.75;;
32864;SDS011;19219;44.500;11.188;2024-02-23T02:44:17;5.60;;;2.78;;
32864;SDS011;19219;44.500;11.188;2024-02-23T02:46:43;8.15;;;3.20;;
32864;SDS011;19219;44.500;11.188;2024-02-23T02:49:09;7.15;;;3.00;;
32864;SDS011;19219;44.500;11.188;2024-02-23T02:51:36;7.15;;;3.03;;
32864;SDS011;19219;44.500;11.188;2024-02-23T02:54:01;5.57;;;2.50;;
32864;SDS011;19219;44.500;11.188;2024-02-23T02:56:27;3.03;;;2.50;;
32864;SDS011;19219;44.500;11.188;2024-02-23T02:58:53;6.13;;;3.30;;
32864;SDS011;19219;44.500;11.188;2024-02-23T03:01:19;5.45;;;2.75;;
32864;SDS011;19219;44.500;11.188;2024-02-23T03:03:45;6.70;;;3.22;;
32864;SDS011;19219;44.500;11.188;2024-02-23T03:06:10;7.00;;;3.20;;
32864;SDS011;19219;44.500;11.188;2024-02-23T03:08:36;9.13;;;2.75;;
32864;SDS011;19219;44.500;11.188;2024-02-23T03:11:02;7.25;;;2.95;;
32864;SDS011;19219;44.500;11.188;2024-02-23T03:13:27;7.88;;;3.40;;
32864;SDS011;19219;44.500;11.188;2024-02-23T03:15:53;14.63;;;3.67;;
32864;SDS011;19219;44.500;11.188;2024-02-23T03:18:20;8.93;;;3.75;;
32864;SDS011;19219;44.500;11.188;2024-02-23T03:20:46;8.00;;;3.30;;
32864;SDS011;19219;44.500;11.188;2024-02-23T03:23:12;6.80;;;3.47;;
32864;SDS011;19219;44.500;11.188;2024-02-23T03:25:37;9.13;;;3.65;;
32864;SDS011;19219;44.500;11.188;2024-02-23T03:28:03;3.95;;;3.17;;
32864;SDS011;19219;44.500;11.188;2024-02-23T03:30:29;8.48;;;3.13;;
32864;SDS011;19219;44.500;11.188;2024-02-23T03:32:55;8.50;;;3.47;;
32864;SDS011;19219;44.500;11.188;2024-02-23T03:35:20;7.07;;;3.75;;
32864;SDS011;19219;44.500;11.188;2024-02-23T03:37:46;9.25;;;3.88;;
32864;SDS011;19219;44.500;11.188;2024-02-23T03:40:12;7.72;;;3.22;;
32864;SDS011;19219;44.500;11.188;2024-02-23T03:42:37;10.48;;;3.80;;
32864;SDS011;19219;44.500;11.188;2024-02-23T03:45:04;6.65;;;2.95;;
32864;SDS011;19219;44.500;11.188;2024-02-23T03:47:31;8.93;;;3.03;;
32864;SDS011;19219;44.500;11.188;2024-02-23T03:49:57;5.90;;;3.88;;
32864;SDS011;19219;44.500;11.188;2024-02-23T03:52:22;7.85;;;3.58;;
32864;SDS011;19219;44.500;11.188;2024-02-23T03:54:48;10.98;;;4.50;;
32864;SDS011;19219;44.500;11.188;2024-02-23T03:57:14;12.70;;;5.05;;
32864;SDS011;19219;44.500;11.188;2024-02-23T03:59:40;7.28;;;3.85;;
32864;SDS011;19219;44.500;11.188;2024-02-23T04:02:18;7.30;;;3.50;;
32864;SDS011;19219;44.500;11.188;2024-02-23T04:04:44;11.00;;;4.25;;
32864;SDS011;19219;44.500;11.188;2024-02-23T04:07:09;9.88;;;3.30;;
32864;SDS011;19219;44.500;11.188;2024-02-23T04:09:35;5.70;;;3.40;;
32864;SDS011;19219;44.500;11.188;2024-02-23T04:12:02;7.35;;;3.75;;
32864;SDS011;19219;44.500;11.188;2024-02-23T04:14:28;9.57;;;3.75;;
32864;SDS011;19219;44.500;11.188;2024-02-23T04:16:54;11.13;;;4.32;;
32864;SDS011;19219;44.500;11.188;2024-02-23T04:19:19;6.97;;;3.30;;
32864;SDS011;19219;44.500;11.188;2024-02-23T04:21:46;9.13;;;3.88;;
32864;SDS011;19219;44.500;11.188;2024-02-23T04:24:12;10.13;;;3.97;;
32864;SDS011;19219;44.500;11.188;2024-02-23T04:26:38;7.93;;;3.97;;
32864;SDS011;19219;44.500;11.188;2024-02-23T04:29:04;11.48;;;3.60;;
32864;SDS011;19219;44.500;11.188;2024-02-23T04:31:29;7.82;;;4.35;;
32864;SDS011;19219;44.500;11.188;2024-02-23T04:33:55;5.80;;;3.40;;
32864;SDS011;19219;44.500;11.188;2024-02-23T04:36:21;8.00;;;3.25;;
32864;SDS011;19219;44.500;11.188;2024-02-23T04:38:46;10.23;;;4.03;;
32864;SDS011;19219;44.500;11.188;2024-02-23T04:41:12;9.30;;;3.20;;
32864;SDS011;19219;44.500;11.188;2024-02-23T04:43:38;12.55;;;4.10;;
32864;SDS011;19219;44.500;11.188;2024-02-23T04:46:05;8.05;;;3.65;;
32864;SDS011;19219;44.500;11.188;2024-02-23T04:48:32;14.70;;;3.58;;
32864;SDS011;19219;44.500;11.188;2024-02-23T04:50:58;6.63;;;3.45;;
32864;SDS011;19219;44.500;11.188;2024-02-23T04:53:24;11.32;;;4.13;;
32864;SDS011;19219;44.500;11.188;2024-02-23T04:55:49;8.10;;;3.75;;
32864;SDS011;19219;44.500;11.188;2024-02-23T04:58:15;5.57;;;3.38;;
32864;SDS011;19219;44.500;11.188;2024-02-23T05:00:41;10.95;;;3.72;;
32864;SDS011;19219;44.500;11.188;2024-02-23T05:03:07;10.52;;;3.78;;
32864;SDS011;19219;44.500;11.188;2024-02-23T05:05:34;6.90;;;3.08;;
32864;SDS011;19219;44.500;11.188;2024-02-23T05:08:01;12.20;;;3.67;;
32864;SDS011;19219;44.500;11.188;2024-02-23T05:10:27;10.05;;;3.63;;
32864;SDS011;19219;44.500;11.188;2024-02-23T05:12:54;12.45;;;4.00;;
32864;SDS011;19219;44.500;11.188;2024-02-23T05:15:20;4.85;;;3.70;;
32864;SDS011;19219;44.500;11.188;2024-02-23T05:17:46;12.38;;;4.30;;
32864;SDS011;19219;44.500;11.188;2024-02-23T05:20:13;5.93;;;3.80;;
32864;SDS011;19219;44.500;11.188;2024-02-23T05:22:39;7.78;;;3.70;;
32864;SDS011;19219;44.500;11.188;2024-02-23T05:25:05;8.98;;;3.60;;
32864;SDS011;19219;44.500;11.188;2024-02-23T05:27:31;9.43;;;3.78;;
32864;SDS011;19219;44.500;11.188;2024-02-23T05:29:57;8.88;;;3.88;;
32864;SDS011;19219;44.500;11.188;2024-02-23T05:32:23;10.43;;;4.30;;
32864;SDS011;19219;44.500;11.188;2024-02-23T05:34:49;7.03;;;3.60;;
32864;SDS011;19219;44.500;11.188;2024-02-23T05:37:17;8.00;;;3.90;;
32864;SDS011;19219;44.500;11.188;2024-02-23T05:39:44;7.57;;;4.10;;
32864;SDS011;19219;44.500;11.188;2024-02-23T05:42:11;6.35;;;2.80;;
32864;SDS011;19219;44.500;11.188;2024-02-23T05:44:38;5.72;;;3.38;;
32864;SDS011;19219;44.500;11.188;2024-02-23T05:47:04;13.15;;;3.65;;
32864;SDS011;19219;44.500;11.188;2024-02-23T05:49:30;6.15;;;3.97;;
32864;SDS011;19219;44.500;11.188;2024-02-23T05:51:56;8.55;;;4.97;;
32864;SDS011;19219;44.500;11.188;2024-02-23T05:54:21;9.70;;;3.92;;
32864;SDS011;19219;44.500;11.188;2024-02-23T05:56:47;6.75;;;3.15;;
32864;SDS011;19219;44.500;11.188;2024-02-23T05:59:15;4.88;;;2.90;;
32864;SDS011;19219;44.500;11.188;2024-02-23T06:01:40;8.65;;;3.10;;
32864;SDS011;19219;44.500;11.188;2024-02-23T06:04:06;7.00;;;3.15;;
32864;SDS011;19219;44.500;11.188;2024-02-23T06:06:32;5.70;;;2.67;;
32864;SDS011;19219;44.500;11.188;2024-02-23T06:08:57;6.40;;;3.40;;
32864;SDS011;19219;44.500;11.188;2024-02-23T06:11:25;8.43;;;3.03;;
32864;SDS011;19219;44.500;11.188;2024-02-23T06:13:52;10.25;;;3.28;;
32864;SDS011;19219;44.500;11.188;2024-02-23T06:16:18;6.47;;;3.70;;
32864;SDS011;19219;44.500;11.188;2024-02-23T06:18:43;7.72;;;3.92;;
32864;SDS011;19219;44.500;11.188;2024-02-23T06:21:13;5.47;;;3.13;;
32864;SDS011;19219;44.500;11.188;2024-02-23T06:23:43;12.35;;;3.78;;
32864;SDS011;19219;44.500;11.188;2024-02-23T06:26:09;5.00;;;4.05;;
32864;SDS011;19219;44.500;11.188;2024-02-23T06:28:35;4.63;;;2.78;;
32864;SDS011;19219;44.500;11.188;2024-02-23T06:31:06;5.78;;;2.92;;
32864;SDS011;19219;44.500;11.188;2024-02-23T06:33:33;7.43;;;3.55;;
32864;SDS011;19219;44.500;11.188;2024-02-23T06:35:58;3.95;;;3.33;;
32864;SDS011;19219;44.500;11.188;2024-02-23T06:38:24;8.80;;;3.13;;
32864;SDS011;19219;44.500;11.188;2024-02-23T06:40:50;8.45;;;3.05;;
32864;SDS011;19219;44.500;11.188;2024-02-23T06:43:16;9.50;;;3.67;;
32864;SDS011;19219;44.500;11.188;2024-02-23T06:45:42;6.38;;;3.00;;
32864;SDS011;19219;44.500;11.188;2024-02-23T06:48:08;4.65;;;2.70;;
32864;SDS011;19219;44.500;11.188;2024-02-23T06:50:34;9.10;;;3.45;;
32864;SDS011;19219;44.500;11.188;2024-02-23T06:53:01;5.78;;;3.45;;
32864;SDS011;19219;44.500;11.188;2024-02-23T06:55:27;5.90;;;3.55;;
32864;SDS011;19219;44.500;11.188;2024-02-23T06:57:54;7.65;;;3.92;;
32864;SDS011;19219;44.500;11.188;2024-02-23T07:00:20;10.15;;;3.22;;
32864;SDS011;19219;44.500;11.188;2024-02-23T07:02:49;5.72;;;3.28;;
32864;SDS011;19219;44.500;11.188;2024-02-23T07:05:15;7.13;;;3.50;;
32864;SDS011;19219;44.500;11.188;2024-02-23T07:07:41;6.50;;;2.97;;
32864;SDS011;19219;44.500;11.188;2024-02-23T07:10:06;6.70;;;3.10;;
32864;SDS011;19219;44.500;11.188;2024-02-23T07:12:33;5.47;;;3.20;;
32864;SDS011;19219;44.500;11.188;2024-02-23T07:14:59;7.07;;;2.55;;
32864;SDS011;19219;44.500;11.188;2024-02-23T07:17:25;6.18;;;2.50;;
32864;SDS011;19219;44.500;11.188;2024-02-23T07:19:50;7.72;;;2.95;;
32864;SDS011;19219;44.500;11.188;2024-02-23T07:22:17;7.95;;;5.97;;
32864;SDS011;19219;44.500;11.188;2024-02-23T07:24:44;14.68;;;3.80;;
32864;SDS011;19219;44.500;11.188;2024-02-23T07:27:09;9.50;;;2.60;;
32864;SDS011;19219;44.500;11.188;2024-02-23T07:29:35;5.57;;;2.42;;
32864;SDS011;19219;44.500;11.188;2024-02-23T07:32:01;5.13;;;2.53;;
32864;SDS011;19219;44.500;11.188;2024-02-23T07:34:27;4.50;;;2.40;;
32864;SDS011;19219;44.500;11.188;2024-02-23T07:36:53;9.10;;;3.42;;
32864;SDS011;19219;44.500;11.188;2024-02-23T07:39:19;5.90;;;2.88;;
32864;SDS011;19219;44.500;11.188;2024-02-23T07:41:45;8.80;;;3.45;;
32864;SDS011;19219;44.500;11.188;2024-02-23T07:44:11;9.20;;;3.15;;
32864;SDS011;19219;44.500;11.188;2024-02-23T07:46:37;11.32;;;3.83;;
32864;SDS011;19219;44.500;11.188;2024-02-23T07:49:03;10.40;;;4.18;;
32864;SDS011;19219;44.500;11.188;2024-02-23T07:51:32;8.02;;;2.90;;
32864;SDS011;19219;44.500;11.188;2024-02-23T07:53:57;7.07;;;3.28;;
32864;SDS011;19219;44.500;11.188;2024-02-23T07:56:23;4.93;;;3.35;;
32864;SDS011;19219;44.500;11.188;2024-02-23T07:58:49;9.35;;;3.75;;
32864;SDS011;19219;44.500;11.188;2024-02-23T08:01:14;12.07;;;3.40;;
32864;SDS011;19219;44.500;11.188;2024-02-23T08:03:40;5.25;;;3.38;;
32864;SDS011;19219;44.500;11.188;2024-02-23T08:06:06;5.53;;;3.28;;
32864;SDS011;19219;44.500;11.188;2024-02-23T08:08:32;6.00;;;3.03;;
32864;SDS011;19219;44.500;11.188;2024-02-23T08:11:01;10.55;;;3.50;;
32864;SDS011;19219;44.500;11.188;2024-02-23T08:13:27;8.15;;;3.67;;
32864;SDS011;19219;44.500;11.188;2024-02-23T08:15:53;9.38;;;3.88;;
32864;SDS011;19219;44.500;11.188;2024-02-23T08:18:18;10.98;;;3.25;;
32864;SDS011;19219;44.500;11.188;2024-02-23T08:20:44;8.95;;;3.38;;
32864;SDS011;19219;44.500;11.188;2024-02-23T08:23:10;8.85;;;3.42;;
32864;SDS011;19219;44.500;11.188;2024-02-23T08:25:36;4.40;;;3.05;;
32864;SDS011;19219;44.500;11.188;2024-02-23T08:28:02;8.65;;;3.40;;
32864;SDS011;19219;44.500;11.188;2024-02-23T08:30:27;5.90;;;3.35;;
32864;SDS011;19219;44.500;11.188;2024-02-23T08:32:53;5.85;;;2.40;;
32864;SDS011;19219;44.500;11.188;2024-02-23T08:35:19;6.13;;;2.28;;
32864;SDS011;19219;44.500;11.188;2024-02-23T08:37:45;12.45;;;3.72;;
32864;SDS011;19219;44.500;11.188;2024-02-23T08:40:11;6.28;;;3.33;;
32864;SDS011;19219;44.500;11.188;2024-02-23T08:42:37;8.82;;;2.83;;
32864;SDS011;19219;44.500;11.188;2024-02-23T08:45:03;5.32;;;2.80;;
32864;SDS011;19219;44.500;11.188;2024-02-23T08:47:29;2.75;;;2.47;;
32864;SDS011;19219;44.500;11.188;2024-02-23T08:49:58;10.00;;;3.20;;
32864;SDS011;19219;44.500;11.188;2024-02-23T08:52:24;6.82;;;3.10;;
32864;SDS011;19219;44.500;11.188;2024-02-23T08:54:51;9.88;;;3.85;;
32864;SDS011;19219;44.500;11.188;2024-02-23T08:57:16;4.18;;;2.70;;
32864;SDS011;19219;44.500;11.188;2024-02-23T08:59:44;6.90;;;2.70;;
32864;SDS011;19219;44.500;11.188;2024-02-23T09:02:10;5.80;;;2.80;;
32864;SDS011;19219;44.500;11.188;2024-02-23T09:04:37;3.25;;;2.70;;
32864;SDS011;19219;44.500;11.188;2024-02-23T09:07:03;5.03;;;2.65;;
32864;SDS011;19219;44.500;11.188;2024-02-23T09:09:29;8.40;;;2.78;;
32864;SDS011;19219;44.500;11.188;2024-02-23T09:11:55;7.45;;;4.07;;
32864;SDS011;19219;44.500;11.188;2024-02-23T09:14:21;14.27;;;7.90;;
32864;SDS011;19219;44.500;11.188;2024-02-23T09:16:46;22.20;;;10.38;;
32864;SDS011;19219;44.500;11.188;2024-02-23T09:19:15;15.50;;;10.60;;
32864;SDS011;19219;44.500;11.188;2024-02-23T09:21:41;18.92;;;11.48;;
32864;SDS011;19219;44.500;11.188;2024-02-23T09:24:07;16.73;;;11.73;;
32864;SDS011;19219;44.500;11.188;2024-02-23T09:26:33;17.73;;;11.50;;
32864;SDS011;19219;44.500;11.188;2024-02-23T09:28:59;17.77;;;11.50;;
32864;SDS011;19219;44.500;11.188;2024-02-23T09:31:24;15.85;;;10.95;;
32864;SDS011;19219;44.500;11.188;2024-02-23T09:33:51;19.48;;;11.48;;
32864;SDS011;19219;44.500;11.188;2024-02-23T09:36:17;25.80;;;11.77;;
32864;SDS011;19219;44.500;11.188;2024-02-23T09:38:43;20.40;;;12.60;;
32864;SDS011;19219;44.500;11.188;2024-02-23T09:41:15;14.55;;;9.13;;
32864;SDS011;19219;44.500;11.188;2024-02-23T09:43:48;15.20;;;8.43;;
32864;SDS011;19219;44.500;11.188;2024-02-23T09:46:15;14.77;;;8.57;;
32864;SDS011;19219;44.500;11.188;2024-02-23T09:48:42;18.73;;;8.23;;
32864;SDS011;19219;44.500;11.188;2024-02-23T09:51:10;15.02;;;9.05;;
32864;SDS011;19219;44.500;11.188;2024-02-23T09:53:37;13.23;;;8.50;;
32864;SDS011;19219;44.500;11.188;2024-02-23T09:56:04;11.90;;;8.50;;
32864;SDS011;19219;44.500;11.188;2024-02-23T09:58:33;10.85;;;7.63;;
32864;SDS011;19219;44.500;11.188;2024-02-23T10:01:04;14.57;;;8.68;;
32864;SDS011;19219;44.500;11.188;2024-02-23T10:03:30;12.98;;;8.20;;
32864;SDS011;19219;44.500;11.188;2024-02-23T10:05:58;14.43;;;8.85;;
32864;SDS011;19219;44.500;11.188;2024-02-23T10:08:29;12.00;;;8.48;;
32864;SDS011;19219;44.500;11.188;2024-02-23T10:10:55;13.93;;;8.63;;
32864;SDS011;19219;44.500;11.188;2024-02-23T10:13:24;13.27;;;8.65;;
32864;SDS011;19219;44.500;11.188;2024-02-23T10:15:53;12.43;;;8.50;;
32864;SDS011;19219;44.500;11.188;2024-02-23T10:18:19;13.18;;;9.15;;
32864;SDS011;19219;44.500;11.188;2024-02-23T10:20:45;11.05;;;7.93;;
32864;SDS011;19219;44.500;11.188;2024-02-23T10:23:12;10.15;;;8.52;;
32864;SDS011;19219;44.500;11.188;2024-02-23T10:25:38;13.20;;;8.65;;
32864;SDS011;19219;44.500;11.188;2024-02-23T10:28:05;15.48;;;9.43;;
32864;SDS011;19219;44.500;11.188;2024-02-23T10:30:32;13.10;;;9.70;;
32864;SDS011;19219;44.500;11.188;2024-02-23T10:32:58;14.35;;;9.32;;
32864;SDS011;19219;44.500;11.188;2024-02-23T10:35:25;15.05;;;10.15;;
32864;SDS011;19219;44.500;11.188;2024-02-23T10:37:52;12.75;;;8.40;;
32864;SDS011;19219;44.500;11.188;2024-02-23T10:40:20;13.88;;;8.98;;
32864;SDS011;19219;44.500;11.188;2024-02-23T10:42:47;12.75;;;9.10;;
32864;SDS011;19219;44.500;11.188;2024-02-23T10:45:17;13.65;;;9.30;;
32864;SDS011;19219;44.500;11.188;2024-02-23T10:47:44;10.95;;;8.65;;
32864;SDS011;19219;44.500;11.188;2024-02-23T10:50:10;14.75;;;9.63;;
32864;SDS011;19219;44.500;11.188;2024-02-23T10:52:39;11.93;;;9.15;;
32864;SDS011;19219;44.500;11.188;2024-02-23T10:55:08;11.90;;;8.25;;
32864;SDS011;19219;44.500;11.188;2024-02-23T10:57:34;12.13;;;8.70;;
32864;SDS011;19219;44.500;11.188;2024-02-23T11:00:00;12.35;;;8.70;;
32864;SDS011;19219;44.500;11.188;2024-02-23T11:02:30;13.45;;;8.35;;
32864;SDS011;19219;44.500;11.188;2024-02-23T11:04:59;13.20;;;8.23;;
32864;SDS011;19219;44.500;11.188;2024-02-23T11:07:24;9.48;;;7.32;;
32864;SDS011;19219;44.500;11.188;2024-02-23T11:09:54;10.50;;;6.95;;
32864;SDS011;19219;44.500;11.188;2024-02-23T11:12:24;14.05;;;8.38;;
32864;SDS011;19219;44.500;11.188;2024-02-23T11:14:50;10.88;;;7.60;;
32864;SDS011;19219;44.500;11.188;2024-02-23T11:17:20;9.27;;;7.05;;
32864;SDS011;19219;44.500;11.188;2024-02-23T11:19:48;8.68;;;6.40;;
32864;SDS011;19219;44.500;11.188;2024-02-23T11:22:20;8.85;;;6.10;;
32864;SDS011;19219;44.500;11.188;2024-02-23T11:24:50;10.95;;;7.90;;
32864;SDS011;19219;44.500;11.188;2024-02-23T11:27:16;8.32;;;6.95;;
32864;SDS011;19219;44.500;11.188;2024-02-23T11:29:47;7.07;;;5.82;;
32864;SDS011;19219;44.500;11.188;2024-02-23T11:32:16;9.80;;;6.25;;
32864;SDS011;19219;44.500;11.188;2024-02-23T11:34:54;7.40;;;5.88;;
32864;SDS011;19219;44.500;11.188;2024-02-23T11:37:21;8.88;;;7.10;;
32864;SDS011;19219;44.500;11.188;2024-02-23T11:39:47;8.73;;;6.00;;
32864;SDS011;19219;44.500;11.188;2024-02-23T11:42:14;7.72;;;5.95;;
32864;SDS011;19219;44.500;11.188;2024-02-23T11:44:40;7.40;;;6.00;;
32864;SDS011;19219;44.500;11.188;2024-02-23T11:47:06;11.02;;;7.60;;
32864;SDS011;19219;44.500;11.188;2024-02-23T11:49:32;7.97;;;6.22;;
32864;SDS011;19219;44.500;11.188;2024-02-23T11:51:58;7.30;;;5.78;;
32864;SDS011;19219;44.500;11.188;2024-02-23T11:54:25;9.18;;;6.28;;
32864;SDS011;19219;44.500;11.188;2024-02-23T11:56:53;7.22;;;6.50;;
32864;SDS011;19219;44.500;11.188;2024-02-23T11:59:20;17.25;;;7.80;;
32864;SDS011;19219;44.500;11.188;2024-02-23T12:01:46;7.25;;;6.43;;
32864;SDS011;19219;44.500;11.188;2024-02-23T12:04:13;8.43;;;6.88;;
32864;SDS011;19219;44.500;11.188;2024-02-23T12:06:39;13.70;;;7.95;;
32864;SDS011;19219;44.500;11.188;2024-02-23T12:09:06;11.15;;;7.60;;
32864;SDS011;19219;44.500;11.188;2024-02-23T12:11:33;10.77;;;7.05;;
32864;SDS011;19219;44.500;11.188;2024-02-23T12:14:00;9.82;;;5.97;;
32864;SDS011;19219;44.500;11.188;2024-02-23T12:16:27;13.25;;;8.50;;
32864;SDS011;19219;44.500;11.188;2024-02-23T12:18:53;7.68;;;5.97;;
32864;SDS011;19219;44.500;11.188;2024-02-23T12:21:20;6.43;;;5.47;;
32864;SDS011;19219;44.500;11.188;2024-02-23T12:23:47;7.72;;;5.25;;
32864;SDS011;19219;44.500;11.188;2024-02-23T12:26:15;7.22;;;5.57;;
32864;SDS011;19219;44.500;11.188;2024-02-23T12:28:42;7.32;;;5.70;;
32864;SDS011;19219;44.500;11.188;2024-02-23T12:31:09;7.10;;;5.20;;
32864;SDS011;19219;44.500;11.188;2024-02-23T12:33:35;5.43;;;4.72;;
32864;SDS011;19219;44.500;11.188;2024-02-23T12:36:05;8.80;;;5.88;;
32864;SDS011;19219;44.500;11.188;2024-02-23T12:38:32;8.07;;;5.13;;
32864;SDS011;19219;44.500;11.188;2024-02-23T12:40:58;8.18;;;5.30;;
32864;SDS011;19219;44.500;11.188;2024-02-23T12:43:25;7.03;;;5.53;;
32864;SDS011;19219;44.500;11.188;2024-02-23T12:45:56;7.13;;;5.50;;
32864;SDS011;19219;44.500;11.188;2024-02-23T12:48:23;10.00;;;6.63;;
32864;SDS011;19219;44.500;11.188;2024-02-23T12:50:49;9.07;;;6.43;;
32864;SDS011;19219;44.500;11.188;2024-02-23T12:56:01;12.88;;;7.00;;
32864;SDS011;19219;44.500;11.188;2024-02-23T12:58:33;9.07;;;6.00;;
32864;SDS011;19219;44.500;11.188;2024-02-23T13:00:59;8.23;;;5.90;;
32864;SDS011;19219;44.500;11.188;2024-02-23T13:03:25;12.95;;;8.93;;
32864;SDS011;19219;44.500;11.188;2024-02-23T13:05:52;17.13;;;9.60;;
32864;SDS011;19219;44.500;11.188;2024-02-23T13:08:19;11.43;;;7.90;;
32864;SDS011;19219;44.500;11.188;2024-02-23T13:10:44;27.45;;;14.25;;
32864;SDS011;19219;44.500;11.188;2024-02-23T13:13:10;14.38;;;7.05;;
32864;SDS011;19219;44.500;11.188;2024-02-23T13:15:38;8.07;;;6.05;;
32864;SDS011;19219;44.500;11.188;2024-02-23T13:18:04;10.82;;;6.90;;
32864;SDS011;19219;44.500;11.188;2024-02-23T13:20:30;12.35;;;6.95;;
32864;SDS011;19219;44.500;11.188;2024-02-23T13:22:55;10.73;;;7.07;;
32864;SDS011;19219;44.500;11.188;2024-02-23T13:25:21;9.35;;;6.15;;
32864;SDS011;19219;44.500;11.188;2024-02-23T13:27:47;10.70;;;6.72;;
32864;SDS011;19219;44.500;11.188;2024-02-23T13:30:12;10.50;;;7.18;;
32864;SDS011;19219;44.500;11.188;2024-02-23T13:32:38;9.07;;;6.68;;
32864;SDS011;19219;44.500;11.188;2024-02-23T13:35:05;10.23;;;7.25;;
32864;SDS011;19219;44.500;11.188;2024-02-23T13:37:31;10.10;;;7.05;;
32864;SDS011;19219;44.500;11.188;2024-02-23T13:39:57;10.05;;;6.45;;
32864;SDS011;19219;44.500;11.188;2024-02-23T13:42:23;40.05;;;21.63;;
32864;SDS011;19219;44.500;11.188;2024-02-23T13:44:48;12.20;;;7.95;;
32864;SDS011;19219;44.500;11.188;2024-02-23T13:47:14;10.70;;;7.68;;
32864;SDS011;19219;44.500;11.188;2024-02-23T13:49:40;11.18;;;7.13;;
32864;SDS011;19219;44.500;11.188;2024-02-23T13:52:05;9.18;;;6.63;;
32864;SDS011;19219;44.500;11.188;2024-02-23T13:54:31;9.48;;;5.93;;
32864;SDS011;19219;44.500;11.188;2024-02-23T13:56:57;8.80;;;7.32;;
32864;SDS011;19219;44.500;11.188;2024-02-23T13:59:23;10.57;;;6.53;;
32864;SDS011;19219;44.500;11.188;2024-02-23T14:01:48;9.90;;;6.13;;
32864;SDS011;19219;44.500;11.188;2024-02-23T14:04:14;7.25;;;5.20;;
32864;SDS011;19219;44.500;11.188;2024-02-23T14:06:40;9.07;;;5.35;;
32864;SDS011;19219;44.500;11.188;2024-02-23T14:09:06;7.63;;;4.50;;
32864;SDS011;19219;44.500;11.188;2024-02-23T14:11:31;7.65;;;5.20;;
32864;SDS011;19219;44.500;11.188;2024-02-23T14:13:58;6.72;;;5.07;;
32864;SDS011;19219;44.500;11.188;2024-02-23T14:16:24;8.10;;;5.55;;
32864;SDS011;19219;44.500;11.188;2024-02-23T14:18:50;6.68;;;4.57;;
32864;SDS011;19219;44.500;11.188;2024-02-23T14:21:15;7.60;;;5.70;;
32864;SDS011;19219;44.500;11.188;2024-02-23T14:23:43;10.32;;;6.28;;
32864;SDS011;19219;44.500;11.188;2024-02-23T14:26:08;15.82;;;8.45;;